Aviation Digital Data Service (ADDS)

Output produced by TAFs form (0310 UTC 02 April 2015)
found at http://www.aviationweather.gov/adds/tafs/
 
KSBY 012322Z 0200/0224 33008KT P6SM SKC 
     FM020200 00000KT P6SM SKC 
     FM021100 18007KT P6SM SKC 
     FM021500 20014G23KT P6SM SCT250